createdAt,value
2019-04-23T00:01:49.233Z,41.20
2019-04-23T00:04:18.242Z,41.10
2019-04-23T00:06:57.458Z,41.20
2019-04-23T00:09:31.216Z,41.50
2019-04-23T00:11:51.679Z,41.50
2019-04-23T00:16:49.299Z,41.50
2019-04-23T00:19:27.630Z,42.20
2019-04-23T00:21:57.469Z,41.60
2019-04-23T00:25:20.174Z,42.00
2019-04-23T00:29:53.294Z,42.50
2019-04-23T00:32:26.165Z,42.50
2019-04-23T00:37:25.738Z,42.70
2019-04-23T00:42:20.556Z,42.80
2019-04-23T00:44:51.524Z,43.20
2019-04-23T00:47:27.601Z,43.50
2019-04-23T00:50:03.613Z,43.60
2019-04-23T00:52:24.346Z,43.60
2019-04-23T00:54:57.036Z,43.90
2019-04-23T00:57:24.191Z,44.00
2019-04-23T01:00:03.400Z,44.10
2019-04-23T01:02:23.752Z,44.60
2019-04-23T01:04:56.131Z,44.70
2019-04-23T01:07:29.583Z,44.70
2019-04-23T01:10:02.769Z,44.90
2019-04-23T01:12:31.555Z,45.10
2019-04-23T01:14:56.018Z,45.50
2019-04-23T01:17:31.866Z,45.70
2019-04-23T01:20:01.424Z,46.00
2019-04-23T01:22:12.570Z,45.90
2019-04-23T01:25:07.359Z,46.20
2019-04-23T01:30:19.837Z,46.40
2019-04-23T01:33:12.234Z,46.70
2019-04-23T01:35:33.143Z,46.70
2019-04-23T01:37:53.578Z,46.90
2019-04-23T01:40:26.605Z,47.20
2019-04-23T01:42:56.894Z,47.20
2019-04-23T01:45:30.726Z,47.40
2019-04-23T01:48:00.000Z,47.60
2019-04-23T01:50:34.504Z,47.70
2019-04-23T01:53:00.889Z,47.90
2019-04-23T01:55:31.487Z,48.00
2019-04-23T01:58:09.837Z,48.20
2019-04-23T02:00:28.955Z,48.40
2019-04-23T02:05:32.926Z,48.60
2019-04-23T02:07:56.839Z,48.90
2019-04-23T02:13:01.312Z,48.90
2019-04-23T02:15:32.004Z,49.00
2019-04-23T02:18:06.619Z,49.30
2019-04-23T02:20:37.418Z,49.10
2019-04-23T02:23:30.061Z,49.30
2019-04-23T02:25:50.914Z,49.60
2019-04-23T02:28:15.967Z,49.70
2019-04-23T02:38:30.843Z,50.10
2019-04-23T02:41:04.601Z,50.00
2019-04-23T02:46:04.579Z,50.60
2019-04-23T02:48:44.329Z,50.60
2019-04-23T02:53:42.312Z,51.20
2019-04-23T02:56:07.667Z,51.70
2019-04-23T03:01:15.210Z,51.20
2019-04-23T03:03:38.276Z,51.60
2019-04-23T03:08:36.328Z,51.80
2019-04-23T03:11:07.135Z,52.20
2019-04-23T03:13:41.310Z,52.20
2019-04-23T03:18:51.642Z,52.40
2019-04-23T03:24:04.859Z,53.30
2019-04-23T03:26:43.384Z,52.70
2019-04-23T03:29:04.306Z,53.40
2019-04-23T03:39:05.830Z,54.10
2019-04-23T03:44:27.041Z,54.50
2019-04-23T03:46:29.438Z,54.60
2019-04-23T03:51:34.288Z,54.10
2019-04-23T03:54:21.896Z,54.70
2019-04-23T03:56:45.238Z,54.50
2019-04-23T03:59:12.264Z,54.60
2019-04-23T04:09:17.719Z,55.80
2019-04-23T04:11:23.066Z,56.10
2019-04-23T04:16:36.136Z,55.80
2019-04-23T04:21:39.783Z,56.30
2019-04-23T04:24:20.318Z,56.20
2019-04-23T04:26:43.848Z,56.70
2019-04-23T04:31:44.741Z,56.60
2019-04-23T04:34:26.979Z,56.80
2019-04-23T04:36:45.932Z,57.00
2019-04-23T04:41:44.038Z,57.00
2019-04-23T04:44:37.701Z,57.00
2019-04-23T04:46:45.485Z,56.90
2019-04-23T04:51:49.853Z,57.40
2019-04-23T04:54:21.290Z,57.20
2019-04-23T04:59:11.973Z,57.30
2019-04-23T05:01:37.353Z,57.20
2019-04-23T05:04:18.242Z,57.60
2019-04-23T05:06:56.583Z,57.30
2019-04-23T05:09:10.874Z,57.20
2019-04-23T05:11:46.130Z,57.80
2019-04-23T05:14:06.766Z,57.40
2019-04-23T05:21:48.140Z,57.30
2019-04-23T05:24:08.756Z,57.30
2019-04-23T05:29:20.128Z,57.50
2019-04-23T05:31:32.556Z,57.30
2019-04-23T05:36:43.550Z,57.20
2019-04-23T05:39:15.818Z,57.10
2019-04-23T05:44:15.504Z,57.00
2019-04-23T05:49:14.180Z,57.20
2019-04-23T05:51:48.625Z,57.00
2019-04-23T05:54:12.546Z,57.80
2019-04-23T05:56:40.136Z,56.80
2019-04-23T05:59:14.634Z,56.60
2019-04-23T06:09:14.170Z,57.30
2019-04-23T06:11:52.674Z,57.10
2019-04-23T06:17:24.229Z,56.70
2019-04-23T06:19:18.906Z,56.30
2019-04-23T06:21:50.924Z,56.30
2019-04-23T06:24:22.222Z,56.70
2019-04-23T06:26:45.806Z,56.30
2019-04-23T06:29:20.630Z,56.80
2019-04-23T06:34:18.542Z,56.40
2019-04-23T06:36:46.637Z,56.20
2019-04-23T06:39:23.965Z,55.80
2019-04-23T06:41:53.097Z,56.20
2019-04-23T06:44:31.490Z,56.10
2019-04-23T06:49:37.588Z,55.10
2019-04-23T06:54:35.861Z,54.60
2019-04-23T06:57:09.011Z,54.70
2019-04-23T06:59:30.765Z,54.60
2019-04-23T07:02:08.402Z,55.20
2019-04-23T07:04:37.892Z,54.20
2019-04-23T07:07:24.158Z,54.20
2019-04-23T07:09:31.297Z,54.10
2019-04-23T07:12:05.591Z,54.00
2019-04-23T07:17:04.143Z,53.80
2019-04-23T07:19:37.196Z,53.40
2019-04-23T07:22:14.679Z,53.40
2019-04-23T07:24:32.867Z,52.60
2019-04-23T07:27:03.336Z,52.60
2019-04-23T07:29:56.788Z,52.30
2019-04-23T07:32:05.610Z,52.20
2019-04-23T07:34:41.486Z,52.80
2019-04-23T07:37:07.368Z,53.30
2019-04-23T07:39:47.172Z,52.80
2019-04-23T07:42:24.728Z,53.20
2019-04-23T07:44:56.395Z,52.00
2019-04-23T07:47:28.513Z,52.90
2019-04-23T07:50:11.391Z,51.30
2019-04-23T07:52:50.691Z,51.90
2019-04-23T07:55:01.953Z,50.10
2019-04-23T07:57:29.280Z,50.90
2019-04-23T08:00:00.798Z,50.70
2019-04-23T08:05:11.683Z,49.90
2019-04-23T08:07:30.077Z,49.80
2019-04-23T08:10:02.256Z,49.30
2019-04-23T08:12:31.528Z,48.90
2019-04-23T08:15:09.502Z,49.40
2019-04-23T08:17:28.129Z,49.00
2019-04-23T08:20:03.077Z,49.10
2019-04-23T08:22:35.618Z,49.20
2019-04-23T08:25:17.787Z,49.20
2019-04-23T08:27:34.476Z,49.30
2019-04-23T08:30:04.567Z,49.00
2019-04-23T08:32:27.951Z,49.20
2019-04-23T08:35:06.535Z,48.50
2019-04-23T08:37:58.762Z,49.20
2019-04-23T08:40:06.723Z,49.10
2019-04-23T08:42:45.700Z,49.10
2019-04-23T08:45:22.738Z,48.70
2019-04-23T08:50:44.193Z,48.10
2019-04-23T08:53:30.892Z,48.30
2019-04-23T08:55:50.131Z,47.80
2019-04-23T08:58:19.161Z,46.70
2019-04-23T09:00:52.649Z,47.50
2019-04-23T09:05:54.340Z,47.90
2019-04-23T09:08:20.347Z,48.40
2019-04-23T09:11:01.950Z,48.60
2019-04-23T09:15:58.188Z,46.60
2019-04-23T09:18:24.980Z,48.60
2019-04-23T09:20:48.122Z,48.40
2019-04-23T09:23:30.897Z,47.70
2019-04-23T09:25:54.418Z,47.90
2019-04-23T09:30:55.790Z,45.90
2019-04-23T09:33:43.258Z,45.80
2019-04-23T09:36:13.568Z,47.20
2019-04-23T09:39:07.582Z,46.50
2019-04-23T09:41:31.344Z,46.00
2019-04-23T09:44:39.855Z,45.10
2019-04-23T09:49:32.766Z,46.70
2019-04-23T09:52:07.294Z,44.60
2019-04-23T09:54:38.157Z,43.90
2019-04-23T09:57:02.377Z,44.10
2019-04-23T10:01:57.412Z,44.80
2019-04-23T10:04:19.493Z,42.90
2019-04-23T10:06:38.937Z,44.40
2019-04-23T10:09:10.671Z,44.00
2019-04-23T10:11:38.724Z,42.70
2019-04-23T10:14:08.273Z,42.30
2019-04-23T10:16:37.077Z,42.10
2019-04-23T10:19:06.141Z,42.50
2019-04-23T10:21:35.338Z,42.20
2019-04-23T10:24:05.418Z,40.90
2019-04-23T10:26:34.383Z,41.60
2019-04-23T10:29:05.609Z,41.30
2019-04-23T10:31:35.635Z,41.80
2019-04-23T10:34:04.877Z,40.50
2019-04-23T10:36:37.897Z,40.00
2019-04-23T10:39:14.944Z,39.50
2019-04-23T10:41:40.545Z,39.60
2019-04-23T10:44:23.522Z,39.90
2019-04-23T10:47:43.570Z,38.70
2019-04-23T10:50:37.501Z,38.60
2019-04-23T10:53:05.010Z,37.80
2019-04-23T10:55:35.004Z,37.40
2019-04-23T10:57:54.762Z,37.90
2019-04-23T11:00:30.627Z,37.00
2019-04-23T11:02:58.876Z,37.60
2019-04-23T11:05:35.585Z,39.00
2019-04-23T11:07:47.202Z,38.80
2019-04-23T11:10:25.974Z,37.40
2019-04-23T11:13:09.339Z,38.20
2019-04-23T11:18:04.804Z,37.80
2019-04-23T11:20:45.163Z,36.80
2019-04-23T11:22:58.951Z,38.00
2019-04-23T11:25:42.808Z,37.80
2019-04-23T11:28:13.637Z,36.00
2019-04-23T11:30:41.519Z,37.50
2019-04-23T11:33:15.908Z,35.90
2019-04-23T11:38:43.623Z,35.10
2019-04-23T11:40:44.317Z,35.70
2019-04-23T11:43:20.465Z,36.10
2019-04-23T11:48:46.274Z,34.90
2019-04-23T11:58:20.368Z,36.60
2019-04-23T12:01:28.221Z,36.00
2019-04-23T12:04:00.326Z,36.40
2019-04-23T12:06:50.864Z,33.90
2019-04-23T12:08:57.023Z,32.80
2019-04-23T12:11:53.842Z,34.60
2019-04-23T12:17:09.678Z,32.80
2019-04-23T12:19:52.654Z,33.40
2019-04-23T12:22:01.050Z,32.30
2019-04-23T12:27:00.428Z,31.20
2019-04-23T12:29:33.167Z,29.70
2019-04-23T12:32:35.573Z,29.50
2019-04-23T12:34:58.490Z,30.20
2019-04-23T12:37:36.509Z,28.70
2019-04-23T12:40:05.935Z,28.60
2019-04-23T12:42:48.806Z,29.80
2019-04-23T12:45:11.955Z,29.30
2019-04-23T12:47:43.655Z,29.70
2019-04-23T12:50:18.876Z,29.50
2019-04-23T12:52:34.347Z,28.90
2019-04-23T12:55:19.319Z,28.10
2019-04-23T12:57:34.339Z,28.90
2019-04-23T13:00:09.963Z,28.90
2019-04-23T13:05:21.658Z,29.70
2019-04-23T13:07:38.236Z,29.80
2019-04-23T13:10:09.789Z,30.00
2019-04-23T13:12:44.875Z,30.00
2019-04-23T13:15:08.694Z,32.10
2019-04-23T13:20:18.459Z,29.60
2019-04-23T13:35:36.147Z,29.60
2019-04-23T13:37:57.158Z,29.50
2019-04-23T13:40:16.718Z,29.00
2019-04-23T13:45:33.270Z,29.50
2019-04-23T13:47:53.224Z,28.50
2019-04-23T13:50:29.482Z,28.10
2019-04-23T13:55:16.647Z,28.40
2019-04-23T14:00:28.685Z,28.60
2019-04-23T14:05:23.964Z,28.90
2019-04-23T14:07:56.973Z,28.10
2019-04-23T14:10:29.858Z,28.80
2019-04-23T14:13:08.480Z,27.70
2019-04-23T14:18:22.662Z,26.90
2019-04-23T14:20:29.804Z,27.40
2019-04-23T14:25:29.384Z,29.00
2019-04-23T14:28:04.457Z,30.00
2019-04-23T14:33:05.320Z,31.00
2019-04-23T14:38:15.983Z,32.60
2019-04-23T14:40:34.478Z,32.30
2019-04-23T14:43:08.925Z,32.90
2019-04-23T14:45:59.545Z,34.10
2019-04-23T14:48:08.971Z,33.00
2019-04-23T14:50:39.897Z,32.90
2019-04-23T14:53:12.624Z,34.00
2019-04-23T14:55:57.026Z,34.60
2019-04-23T14:58:36.483Z,34.90
2019-04-23T15:01:07.251Z,34.00
2019-04-23T15:03:32.409Z,34.30
2019-04-23T15:06:04.887Z,35.50
2019-04-23T15:08:30.183Z,33.70
2019-04-23T15:11:06.887Z,33.40
2019-04-23T15:13:43.241Z,33.30
2019-04-23T15:16:04.407Z,32.80
2019-04-23T15:18:40.131Z,32.50
2019-04-23T15:21:23.787Z,32.60
2019-04-23T15:26:50.936Z,33.40
2019-04-23T15:28:10.182Z,33.70
2019-04-23T15:31:10.067Z,33.50
2019-04-23T15:36:25.285Z,33.40
2019-04-23T15:38:43.960Z,33.50
2019-04-23T15:41:06.674Z,33.90
2019-04-23T15:43:38.585Z,33.60
2019-04-23T15:46:12.988Z,33.80
2019-04-23T15:49:01.221Z,34.20
2019-04-23T15:51:11.809Z,34.50
2019-04-23T15:53:30.906Z,37.30
2019-04-23T15:56:18.312Z,37.90
2019-04-23T15:58:48.420Z,38.50
2019-04-23T16:01:21.511Z,38.70
2019-04-23T16:03:20.551Z,41.40
2019-04-23T16:05:50.977Z,43.20
2019-04-23T16:08:58.902Z,43.40
2019-04-23T16:11:33.601Z,42.00
2019-04-23T16:14:11.354Z,41.90
2019-04-23T16:16:25.649Z,40.50
2019-04-23T16:19:05.418Z,38.70
2019-04-23T16:21:41.707Z,38.40
2019-04-23T16:31:34.926Z,35.70
2019-04-23T16:34:27.291Z,35.60
2019-04-23T16:36:55.565Z,34.00
2019-04-23T16:39:15.808Z,34.60
2019-04-23T16:41:54.760Z,34.50
2019-04-23T16:44:35.154Z,34.80
2019-04-23T16:46:57.566Z,34.80
2019-04-23T16:49:30.566Z,34.40
2019-04-23T16:51:45.968Z,34.10
2019-04-23T16:54:42.220Z,33.20
2019-04-23T16:57:13.163Z,32.70
2019-04-23T16:59:24.573Z,31.60
2019-04-23T17:02:02.851Z,31.20
2019-04-23T17:04:27.628Z,30.30
2019-04-23T17:06:57.792Z,30.10
2019-04-23T17:09:37.053Z,29.70
2019-04-23T17:14:25.915Z,29.40
2019-04-23T17:17:05.188Z,29.70
2019-04-23T17:19:28.176Z,29.50
2019-04-23T17:22:01.110Z,29.10
2019-04-23T17:24:30.731Z,28.90
2019-04-23T17:32:10.381Z,29.40
2019-04-23T17:35:04.670Z,29.30
2019-04-23T17:40:09.326Z,30.00
2019-04-23T17:42:37.850Z,30.70
2019-04-23T17:45:26.034Z,31.50
2019-04-23T17:47:51.680Z,32.30
2019-04-23T17:50:20.073Z,33.50
2019-04-23T17:52:57.634Z,34.60
2019-04-23T17:57:54.035Z,36.10
2019-04-23T18:00:25.471Z,37.20
2019-04-23T18:05:33.149Z,38.40
2019-04-23T18:08:08.526Z,39.40
2019-04-23T18:12:57.595Z,40.60
2019-04-23T18:15:17.513Z,41.20
2019-04-23T18:17:57.145Z,41.70
2019-04-23T18:20:23.015Z,41.80
2019-04-23T18:23:00.779Z,42.70
2019-04-23T18:25:39.495Z,43.50
2019-04-23T18:28:05.310Z,43.80
2019-04-23T18:30:35.343Z,44.10
2019-04-23T18:35:34.061Z,44.90
2019-04-23T18:41:01.265Z,46.20
2019-04-23T18:46:03.954Z,46.70
2019-04-23T18:51:05.049Z,47.30
2019-04-23T18:53:40.933Z,47.60
2019-04-23T18:58:44.598Z,48.30
2019-04-23T19:01:05.642Z,48.80
2019-04-23T19:06:29.819Z,49.20
2019-04-23T19:11:33.970Z,49.30
2019-04-23T19:13:57.631Z,49.60
2019-04-23T19:16:36.126Z,49.80
2019-04-23T19:19:11.619Z,50.10
2019-04-23T19:21:47.375Z,50.10
2019-04-23T19:23:54.914Z,50.30
2019-04-23T19:26:59.664Z,50.60
2019-04-23T19:29:00.519Z,50.70
2019-04-23T19:31:53.383Z,50.80
2019-04-23T19:34:30.304Z,50.90
2019-04-23T19:36:54.318Z,51.30
2019-04-23T19:39:26.253Z,51.50
2019-04-23T19:41:55.682Z,51.70
2019-04-23T19:44:20.096Z,51.90
2019-04-23T19:46:56.647Z,52.00
2019-04-23T19:49:23.614Z,52.00
2019-04-23T19:51:53.317Z,52.50
2019-04-23T19:54:25.201Z,52.40
2019-04-23T19:59:25.731Z,52.70
2019-04-23T20:01:55.362Z,52.90
2019-04-23T20:04:18.251Z,53.00
2019-04-23T20:09:39.527Z,54.00
2019-04-23T20:14:19.360Z,54.00
2019-04-23T20:19:24.124Z,54.40
2019-04-23T20:24:34.736Z,54.80
2019-04-23T20:27:01.606Z,54.90
2019-04-23T20:29:40.773Z,55.20
2019-04-23T20:32:07.103Z,55.20
2019-04-23T20:36:58.043Z,55.80
2019-04-23T20:39:46.590Z,56.10
2019-04-23T20:44:48.255Z,56.20
2019-04-23T20:47:11.606Z,56.30
2019-04-23T20:49:45.634Z,56.40
2019-04-23T20:52:07.161Z,56.60
2019-04-23T21:05:15.464Z,57.20
2019-04-23T21:07:48.840Z,57.30
2019-04-23T21:15:21.812Z,57.40
2019-04-23T21:17:43.737Z,57.50
2019-04-23T21:22:39.555Z,57.70
2019-04-23T21:25:00.072Z,58.00
2019-04-23T21:30:16.395Z,58.50
2019-04-23T21:32:47.362Z,58.90
2019-04-23T21:35:21.971Z,59.60
2019-04-23T21:37:58.901Z,59.10
2019-04-23T21:43:01.232Z,59.70
2019-04-23T21:45:35.469Z,59.90
2019-04-23T21:48:10.245Z,60.30
2019-04-23T21:50:36.790Z,60.50
2019-04-23T21:53:04.462Z,60.60
2019-04-23T21:55:39.103Z,60.90
2019-04-23T22:00:39.148Z,61.10
2019-04-23T22:05:42.830Z,61.40
2019-04-23T22:08:02.779Z,61.60
2019-04-23T22:10:32.087Z,62.20
2019-04-23T22:15:47.822Z,62.60
2019-04-23T22:18:08.090Z,62.60
2019-04-23T22:20:47.651Z,62.70
2019-04-23T22:25:56.453Z,63.90
2019-04-23T22:28:10.432Z,64.10
2019-04-23T22:30:49.567Z,65.00
2019-04-23T22:33:11.247Z,65.60
2019-04-23T22:35:49.058Z,65.70
2019-04-23T22:38:22.659Z,66.20
2019-04-23T22:40:41.577Z,66.70
2019-04-23T22:45:52.663Z,68.10
2019-04-23T22:51:04.832Z,68.70
2019-04-23T22:55:49.392Z,69.20
2019-04-23T22:58:09.643Z,69.40
2019-04-23T23:01:14.668Z,69.70
2019-04-23T23:03:34.728Z,70.00
2019-04-23T23:06:23.454Z,70.70
2019-04-23T23:08:43.694Z,71.20
2019-04-23T23:11:13.704Z,72.10
2019-04-23T23:13:52.204Z,73.50
2019-04-23T23:16:10.515Z,74.00
2019-04-23T23:21:09.763Z,75.20
2019-04-23T23:23:30.619Z,75.90
2019-04-23T23:26:09.842Z,77.20
2019-04-23T23:28:35.295Z,77.00
2019-04-23T23:31:06.421Z,77.70
2019-04-23T23:33:44.046Z,78.10
2019-04-23T23:36:20.280Z,79.10
2019-04-23T23:38:41.654Z,79.70
2019-04-23T23:43:44.474Z,81.50
2019-04-23T23:48:41.967Z,81.80
2019-04-23T23:53:51.647Z,83.90
2019-04-23T23:58:51.944Z,84.70
